createdAt,value
2019-04-28T05:43:00.796Z,63.30
2019-04-28T05:45:33.120Z,62.70
2019-04-28T05:48:04.822Z,62.50
2019-04-28T05:50:49.933Z,62.30
2019-04-28T05:53:27.552Z,62.20
2019-04-28T05:56:05.426Z,61.80
2019-04-28T05:58:45.159Z,61.50
2019-04-28T06:01:28.042Z,61.20
2019-04-28T06:04:00.909Z,61.00
2019-04-28T06:06:36.388Z,60.50
2019-04-28T06:09:13.472Z,60.30
2019-04-28T06:11:44.979Z,59.90
2019-04-28T06:14:16.482Z,59.60
2019-04-28T06:19:40.407Z,59.00
2019-04-28T06:22:11.921Z,58.70
2019-04-28T06:24:43.813Z,58.40
2019-04-28T06:27:15.533Z,58.10
2019-04-28T06:35:37.761Z,57.70
2019-04-28T06:38:09.258Z,57.70
2019-04-28T06:40:42.308Z,57.60
2019-04-28T06:43:13.854Z,57.50
2019-04-28T06:45:45.584Z,57.40
2019-04-28T06:48:29.690Z,57.30
2019-04-28T07:00:33.498Z,56.90
2019-04-28T07:03:12.975Z,56.80
2019-04-28T07:05:40.453Z,56.70
2019-04-28T07:08:13.883Z,56.50
2019-04-28T07:10:47.072Z,56.30
2019-04-28T07:13:20.678Z,55.90
2019-04-28T07:15:51.563Z,56.20
2019-04-28T07:18:23.760Z,55.00
2019-04-28T07:21:00.937Z,54.50
2019-04-28T07:23:33.384Z,54.10
2019-04-28T07:26:05.400Z,53.70
2019-04-28T07:28:36.976Z,53.60
2019-04-28T07:31:08.797Z,53.40
2019-04-28T07:33:40.531Z,53.20
2019-04-28T07:36:12.104Z,53.10
2019-04-28T07:38:43.977Z,53.00
2019-04-28T07:41:15.240Z,53.00
2019-04-28T07:43:46.936Z,53.10
2019-04-28T07:46:18.270Z,53.10
2019-04-28T07:48:52.280Z,53.20
2019-04-28T07:51:24.666Z,53.10
2019-04-28T07:54:04.510Z,53.00
2019-04-28T07:56:34.321Z,53.00
2019-04-28T07:59:05.943Z,53.00
2019-04-28T08:01:37.756Z,53.00
2019-04-28T08:04:09.374Z,53.10
2019-04-28T08:06:40.976Z,53.10
2019-04-28T08:09:14.522Z,53.10
2019-04-28T08:11:46.179Z,53.20
2019-04-28T08:14:19.715Z,53.40
2019-04-28T08:16:51.096Z,53.30
2019-04-28T08:19:22.501Z,53.50
2019-04-28T08:21:54.080Z,53.50
2019-04-28T08:24:25.358Z,53.50
2019-04-28T08:26:57.343Z,53.40
2019-04-28T08:29:29.163Z,53.30
2019-04-28T08:32:09.077Z,53.20
2019-04-28T08:34:40.438Z,53.20
2019-04-28T08:37:12.388Z,53.10
2019-04-28T08:39:43.838Z,53.10
2019-04-28T08:42:16.022Z,53.00
2019-04-28T08:44:47.460Z,52.90
2019-04-28T08:47:18.912Z,53.10
2019-04-28T08:49:50.551Z,53.00
2019-04-28T08:52:24.320Z,52.90
2019-04-28T08:54:57.244Z,52.60
2019-04-28T08:57:28.720Z,52.50
2019-04-28T09:00:00.251Z,52.40
2019-04-28T09:02:33.475Z,52.20
2019-04-28T09:05:05.092Z,52.10
2019-04-28T09:07:36.985Z,51.90
2019-04-28T09:10:08.777Z,52.50
2019-04-28T09:12:40.563Z,51.60
2019-04-28T09:15:12.426Z,51.50
2019-04-28T09:17:43.939Z,51.50
2019-04-28T09:20:16.791Z,51.50
2019-04-28T09:22:48.395Z,51.50
2019-04-28T09:25:20.206Z,51.40
2019-04-28T09:27:52.170Z,51.30
2019-04-28T09:30:23.976Z,51.30
2019-04-28T09:32:55.838Z,51.40
2019-04-28T09:35:27.146Z,51.40
2019-04-28T09:37:58.675Z,51.90
2019-04-28T09:40:30.355Z,51.60
2019-04-28T09:43:20.933Z,51.70
2019-04-28T09:46:01.366Z,51.70
2019-04-28T09:48:33.177Z,51.80
2019-04-28T09:51:04.656Z,51.80
2019-04-28T09:53:36.590Z,51.70
2019-04-28T09:56:08.093Z,51.70
2019-04-28T09:58:39.608Z,51.60
2019-04-28T10:01:11.335Z,51.60
2019-04-28T10:03:43.174Z,51.60
2019-04-28T10:06:14.638Z,51.50
2019-04-28T10:08:46.103Z,51.50
2019-04-28T10:11:30.004Z,51.50
2019-04-28T10:13:51.610Z,51.70
2019-04-28T10:16:23.161Z,51.90
2019-04-28T10:18:56.302Z,52.10
2019-04-28T10:21:27.709Z,52.10
2019-04-28T10:23:59.388Z,52.00
2019-04-28T10:26:31.251Z,51.80
2019-04-28T10:29:03.218Z,51.90
2019-04-28T10:31:35.337Z,51.80
2019-04-28T10:34:07.069Z,51.80
2019-04-28T10:36:38.464Z,51.80
2019-04-28T10:39:26.189Z,51.70
2019-04-28T10:41:57.579Z,51.80
2019-04-28T10:44:30.578Z,51.60
2019-04-28T10:47:03.181Z,51.20
2019-04-28T10:49:34.800Z,51.20
2019-04-28T10:52:06.216Z,51.20
2019-04-28T10:54:37.948Z,51.20
2019-04-28T10:57:09.449Z,51.20
2019-04-28T10:59:41.055Z,51.40
2019-04-28T11:02:12.432Z,51.50
2019-04-28T11:05:08.072Z,51.60
2019-04-28T11:07:32.861Z,51.60
2019-04-28T11:10:16.436Z,51.60
2019-04-28T11:12:47.770Z,51.70
2019-04-28T11:15:37.612Z,52.00
2019-04-28T11:18:10.696Z,52.00
2019-04-28T11:20:42.202Z,52.20
2019-04-28T11:23:13.889Z,51.50
2019-04-28T11:25:45.721Z,52.50
2019-04-28T11:28:17.102Z,53.00
2019-04-28T11:30:48.724Z,53.20
2019-04-28T11:33:59.893Z,53.80
2019-04-28T11:36:30.910Z,54.50
2019-04-28T11:39:02.876Z,55.30
2019-04-28T11:41:36.133Z,56.00
2019-04-28T11:44:07.767Z,56.50
2019-04-28T11:46:39.831Z,57.20
2019-04-28T11:49:11.459Z,57.50
2019-04-28T11:51:43.114Z,57.90
2019-04-28T11:54:14.801Z,58.20
2019-04-28T11:56:46.443Z,58.60
2019-04-28T11:59:18.866Z,58.80
2019-04-28T12:01:50.554Z,59.10
2019-04-28T12:04:23.588Z,59.30
2019-04-28T12:06:56.095Z,59.60
2019-04-28T12:09:44.497Z,59.80
2019-04-28T12:12:53.011Z,60.70
2019-04-28T12:15:53.531Z,59.80
2019-04-28T12:18:42.881Z,61.20
2019-04-28T12:21:14.502Z,63.40
2019-04-28T12:23:45.840Z,65.50
2019-04-28T12:26:17.306Z,67.60
2019-04-28T12:28:49.080Z,68.70
2019-04-28T12:31:20.699Z,69.80
2019-04-28T12:33:52.170Z,71.00
2019-04-28T12:36:23.715Z,71.70
2019-04-28T12:38:55.058Z,72.50
2019-04-28T12:41:26.255Z,73.00
2019-04-28T12:43:57.914Z,73.40
2019-04-28T12:46:30.537Z,73.90
2019-04-28T12:49:06.890Z,73.90
2019-04-28T12:51:38.808Z,74.00
2019-04-28T12:54:11.861Z,73.90
2019-04-28T12:56:43.209Z,73.90
2019-04-28T12:59:23.462Z,74.00
2019-04-28T13:02:22.840Z,73.90
2019-04-28T13:05:00.182Z,73.70
2019-04-28T13:07:31.818Z,73.50
2019-04-28T13:10:03.364Z,73.30
2019-04-28T13:12:34.768Z,73.30
2019-04-28T13:15:06.915Z,73.20
2019-04-28T13:17:38.402Z,73.10
2019-04-28T13:20:16.671Z,73.10
2019-04-28T13:22:48.280Z,72.80
2019-04-28T13:25:19.879Z,72.80
2019-04-28T13:27:51.220Z,72.50
2019-04-28T13:30:22.616Z,72.40
2019-04-28T13:32:53.879Z,72.30
2019-04-28T13:35:25.602Z,72.30
2019-04-28T13:37:56.815Z,72.20
2019-04-28T13:40:31.630Z,72.20
2019-04-28T13:43:03.277Z,72.30
2019-04-28T13:45:34.805Z,72.30
2019-04-28T13:48:06.327Z,72.30
2019-04-28T13:50:39.414Z,72.40
2019-04-28T13:53:12.026Z,72.50
2019-04-28T13:56:00.779Z,72.40
2019-04-28T13:58:45.198Z,72.40
2019-04-28T14:01:44.439Z,72.40
2019-04-28T14:04:37.627Z,72.30
2019-04-28T14:07:10.047Z,72.20
2019-04-28T14:09:41.695Z,72.20
2019-04-28T14:12:13.101Z,72.20
2019-04-28T14:14:44.464Z,73.00
2019-04-28T14:17:17.090Z,72.00
2019-04-28T14:19:48.663Z,72.10
2019-04-28T14:22:20.103Z,72.10
2019-04-28T14:24:51.625Z,72.10
2019-04-28T14:27:23.142Z,72.20
2019-04-28T14:29:54.805Z,72.30
2019-04-28T14:32:29.026Z,72.20
2019-04-28T14:35:00.638Z,72.30
2019-04-28T14:37:32.603Z,72.50
2019-04-28T14:40:04.899Z,72.70
2019-04-28T14:42:37.559Z,72.70
2019-04-28T14:45:11.582Z,72.90
2019-04-28T14:47:43.579Z,72.90
2019-04-28T14:50:15.229Z,73.00
2019-04-28T14:52:46.925Z,73.00
2019-04-28T14:55:20.612Z,73.20
2019-04-28T14:57:52.128Z,73.00
2019-04-28T15:00:29.119Z,72.90
2019-04-28T15:03:05.808Z,72.90
2019-04-28T15:05:52.284Z,73.80
2019-04-28T15:08:40.503Z,72.80
2019-04-28T15:11:18.231Z,72.70
2019-04-28T15:13:49.873Z,72.60
2019-04-28T15:16:21.182Z,72.50
2019-04-28T15:18:52.509Z,72.30
2019-04-28T15:21:24.459Z,72.10
2019-04-28T15:23:56.193Z,71.50
2019-04-28T15:26:27.671Z,71.20
2019-04-28T15:28:59.340Z,71.40
2019-04-28T15:31:30.867Z,71.30
2019-04-28T15:34:04.261Z,71.20
2019-04-28T15:36:35.588Z,71.30
2019-04-28T15:39:09.405Z,71.40
2019-04-28T15:41:40.977Z,71.60
2019-04-28T15:44:12.396Z,71.80
2019-04-28T15:46:43.710Z,72.10
2019-04-28T15:49:16.393Z,72.10
2019-04-28T15:51:50.871Z,72.30
2019-04-28T15:54:23.567Z,72.50
2019-04-28T15:56:54.977Z,72.60
2019-04-28T15:59:26.357Z,72.80
2019-04-28T16:01:58.032Z,72.90
2019-04-28T16:04:29.405Z,73.90
2019-04-28T16:07:00.901Z,73.00
2019-04-28T16:09:32.217Z,73.20
2019-04-28T16:12:03.838Z,73.30
2019-04-28T16:14:35.274Z,73.50
2019-04-28T16:17:06.790Z,73.60
2019-04-28T16:19:38.379Z,73.80
2019-04-28T16:22:11.596Z,73.80
2019-04-28T16:24:42.921Z,73.70
2019-04-28T16:27:14.268Z,73.90
2019-04-28T16:29:45.994Z,74.20
2019-04-28T16:32:17.418Z,74.30
2019-04-28T16:34:49.105Z,74.20
2019-04-28T16:37:20.614Z,74.30
2019-04-28T16:39:52.078Z,74.40
2019-04-28T16:42:26.655Z,74.60
2019-04-28T16:45:00.686Z,74.50
2019-04-28T16:47:32.880Z,74.60
2019-04-28T16:50:05.042Z,74.60
2019-04-28T16:52:36.477Z,74.60
2019-04-28T16:55:17.464Z,74.70
2019-04-28T16:58:09.465Z,74.70
2019-04-28T17:00:56.366Z,74.80
2019-04-28T17:03:28.927Z,75.80
2019-04-28T17:06:00.382Z,75.20
2019-04-28T17:08:33.624Z,75.50
2019-04-28T17:11:06.769Z,75.70
2019-04-28T17:13:41.043Z,75.90
2019-04-28T17:16:12.970Z,76.10
2019-04-28T17:18:44.421Z,76.20
2019-04-28T17:21:15.995Z,76.40
2019-04-28T17:23:47.839Z,76.60
2019-04-28T17:26:19.223Z,76.60
2019-04-28T17:28:50.984Z,76.70
2019-04-28T17:31:23.031Z,76.80
2019-04-28T17:33:56.248Z,76.90
2019-04-28T17:36:28.855Z,76.90
2019-04-28T17:39:06.338Z,77.00
2019-04-28T17:41:36.877Z,77.00
2019-04-28T17:44:09.402Z,77.00
2019-04-28T17:46:41.773Z,77.90
2019-04-28T17:49:13.678Z,77.20
2019-04-28T17:51:45.653Z,77.20
2019-04-28T17:54:17.049Z,77.20
2019-04-28T17:56:48.481Z,77.30
2019-04-28T17:59:19.831Z,77.30
2019-04-28T18:02:10.562Z,77.40
2019-04-28T18:04:51.814Z,77.50
2019-04-28T18:07:32.151Z,77.50
2019-04-28T18:10:06.358Z,77.50
2019-04-28T18:12:37.859Z,77.50
2019-04-28T18:15:24.090Z,77.70
2019-04-28T18:18:04.168Z,77.70
2019-04-28T18:20:35.629Z,77.80
2019-04-28T18:23:07.289Z,77.80
2019-04-28T18:25:40.593Z,77.90
2019-04-28T18:28:12.176Z,77.90
2019-04-28T18:30:50.870Z,77.90
2019-04-28T18:33:52.868Z,78.00
2019-04-28T18:36:32.125Z,78.10
2019-04-28T18:39:28.906Z,78.00
2019-04-28T18:42:14.779Z,78.10
2019-04-28T18:44:47.642Z,78.10
2019-04-28T18:47:19.079Z,78.10
2019-04-28T18:49:51.605Z,78.10
2019-04-28T18:52:23.016Z,78.10
2019-04-28T18:54:54.623Z,78.10
2019-04-28T18:57:26.408Z,78.00
2019-04-28T18:59:57.784Z,78.00
2019-04-28T19:02:44.139Z,77.90
2019-04-28T19:05:15.868Z,77.80
2019-04-28T19:08:15.391Z,77.70
2019-04-28T19:11:04.169Z,77.80
2019-04-28T19:13:39.839Z,77.80
2019-04-28T19:16:29.114Z,77.80
2019-04-28T19:19:03.923Z,77.80
2019-04-28T19:21:35.334Z,77.70
2019-04-28T19:24:08.483Z,77.60
2019-04-28T19:26:40.039Z,77.50
2019-04-28T19:29:11.922Z,77.50
2019-04-28T19:31:43.303Z,77.50
2019-04-28T19:34:14.964Z,77.30
2019-04-28T19:36:46.861Z,77.20
2019-04-28T19:39:19.928Z,77.10
2019-04-28T19:41:53.027Z,77.00
2019-04-28T19:44:26.758Z,76.70
2019-04-28T19:46:58.242Z,76.50
2019-04-28T19:49:29.740Z,76.30
2019-04-28T19:52:01.283Z,76.30
2019-04-28T19:54:36.979Z,76.30
2019-04-28T19:57:14.707Z,76.40
2019-04-28T20:00:04.166Z,76.30
2019-04-28T20:02:37.534Z,76.10
2019-04-28T20:05:10.773Z,75.90
2019-04-28T20:07:42.206Z,75.70
2019-04-28T20:10:14.118Z,75.70
2019-04-28T20:12:45.454Z,75.90
2019-04-28T20:15:17.414Z,75.80
2019-04-28T20:17:48.924Z,75.90
2019-04-28T20:20:20.348Z,75.90
2019-04-28T20:22:55.960Z,75.90
2019-04-28T20:25:27.421Z,75.90
2019-04-28T20:27:59.110Z,75.90
2019-04-28T20:30:30.912Z,75.90
2019-04-28T20:33:07.285Z,76.00
2019-04-28T20:35:38.793Z,76.00
2019-04-28T20:38:16.622Z,76.00
2019-04-28T20:40:57.441Z,76.10
2019-04-28T20:43:29.190Z,76.00
2019-04-28T20:46:00.458Z,75.90
2019-04-28T20:48:32.824Z,75.90
2019-04-28T20:51:04.654Z,75.90
2019-04-28T20:53:37.308Z,75.90
2019-04-28T20:56:08.832Z,76.00
2019-04-28T20:58:40.257Z,75.90
2019-04-28T21:01:11.852Z,75.90
2019-04-28T21:03:43.379Z,75.80
2019-04-28T21:06:15.014Z,75.80
2019-04-28T21:08:46.655Z,75.80
2019-04-28T21:11:18.638Z,75.80
2019-04-28T21:13:50.136Z,75.80
2019-04-28T21:16:21.810Z,75.80
2019-04-28T21:18:56.075Z,75.70
2019-04-28T21:21:27.533Z,75.80
2019-04-28T21:23:58.852Z,75.80
2019-04-28T21:26:30.772Z,75.90
2019-04-28T21:29:02.337Z,76.00
2019-04-28T21:31:34.165Z,75.90
2019-04-28T21:34:05.393Z,76.10
2019-04-28T21:36:37.005Z,76.00
2019-04-28T21:39:09.642Z,75.90
2019-04-28T21:41:41.629Z,76.00
2019-04-28T21:44:20.812Z,76.00
2019-04-28T21:46:57.809Z,76.00
2019-04-28T21:49:34.618Z,76.90
2019-04-28T21:52:06.312Z,76.00
2019-04-28T21:54:38.089Z,76.20
2019-04-28T21:57:10.010Z,76.00
2019-04-28T21:59:41.826Z,76.20
2019-04-28T22:02:13.429Z,76.00
2019-04-28T22:04:47.008Z,76.00
2019-04-28T22:07:18.191Z,76.10
2019-04-28T22:09:49.821Z,76.10
2019-04-28T22:12:21.905Z,76.10
2019-04-28T22:14:53.872Z,76.10
2019-04-28T22:17:25.772Z,76.20
2019-04-28T22:19:57.933Z,76.20
2019-04-28T22:22:29.642Z,76.20
2019-04-28T22:25:08.576Z,76.20
2019-04-28T22:27:42.056Z,76.20
2019-04-28T22:30:15.064Z,76.20
2019-04-28T22:32:46.881Z,76.30
2019-04-28T22:35:18.816Z,76.30
2019-04-28T22:37:51.675Z,76.30
2019-04-28T22:40:23.383Z,76.30
2019-04-28T22:42:54.701Z,76.30
2019-04-28T22:45:25.891Z,76.30
2019-04-28T22:47:57.845Z,76.30
2019-04-28T22:50:46.595Z,76.50
2019-04-28T22:53:20.573Z,76.50
2019-04-28T22:56:01.527Z,76.30
2019-04-28T22:58:45.630Z,76.30
2019-04-28T23:01:30.367Z,76.40
2019-04-28T23:04:05.852Z,76.60
2019-04-28T23:06:37.901Z,76.50
2019-04-28T23:09:13.512Z,76.60
2019-04-28T23:11:45.094Z,77.70
2019-04-28T23:14:16.996Z,77.00
2019-04-28T23:16:48.299Z,77.00
2019-04-28T23:19:21.515Z,77.00
2019-04-28T23:22:14.870Z,77.10
2019-04-28T23:24:46.249Z,77.20
2019-04-28T23:27:18.226Z,77.30
2019-04-28T23:29:49.587Z,77.30
2019-04-28T23:32:21.356Z,77.50
2019-04-28T23:34:53.451Z,77.40
2019-04-28T23:37:25.256Z,77.40
2019-04-28T23:39:56.770Z,77.60
2019-04-28T23:42:39.175Z,77.70
2019-04-28T23:45:12.424Z,77.70
2019-04-28T23:47:43.891Z,77.70
2019-04-28T23:50:21.503Z,77.80
2019-04-28T23:53:03.395Z,77.90
2019-04-28T23:55:35.030Z,78.10
2019-04-28T23:58:06.614Z,78.20
